sensor_id;sensor_type;location;lat;lon;timestamp;P1;durP1;ratioP1;P2;durP2;ratioP2
65377;SDS011;51982;51.042;13.806;2023-06-24T00:01:43;7.77;;;5.17;;
65377;SDS011;51982;51.042;13.806;2023-06-24T00:04:08;7.57;;;4.67;;
65377;SDS011;51982;51.042;13.806;2023-06-24T00:06:34;7.00;;;5.30;;
65377;SDS011;51982;51.042;13.806;2023-06-24T00:08:59;8.32;;;5.22;;
65377;SDS011;51982;51.042;13.806;2023-06-24T00:11:28;8.02;;;5.22;;
65377;SDS011;51982;51.042;13.806;2023-06-24T00:13:54;7.55;;;5.78;;
65377;SDS011;51982;51.042;13.806;2023-06-24T00:16:19;7.35;;;5.35;;
65377;SDS011;51982;51.042;13.806;2023-06-24T00:18:51;8.80;;;5.40;;
65377;SDS011;51982;51.042;13.806;2023-06-24T00:21:17;8.73;;;5.75;;
65377;SDS011;51982;51.042;13.806;2023-06-24T00:23:43;12.57;;;5.70;;
65377;SDS011;51982;51.042;13.806;2023-06-24T00:26:08;7.43;;;5.20;;
65377;SDS011;51982;51.042;13.806;2023-06-24T00:28:33;7.32;;;5.28;;
65377;SDS011;51982;51.042;13.806;2023-06-24T00:30:59;7.30;;;5.53;;
65377;SDS011;51982;51.042;13.806;2023-06-24T00:33:24;8.70;;;5.70;;
65377;SDS011;51982;51.042;13.806;2023-06-24T00:35:49;7.55;;;5.47;;
65377;SDS011;51982;51.042;13.806;2023-06-24T00:38:14;11.97;;;5.43;;
65377;SDS011;51982;51.042;13.806;2023-06-24T00:40:39;8.07;;;5.73;;
65377;SDS011;51982;51.042;13.806;2023-06-24T00:43:05;7.20;;;5.55;;
65377;SDS011;51982;51.042;13.806;2023-06-24T00:45:31;7.47;;;5.85;;
65377;SDS011;51982;51.042;13.806;2023-06-24T00:47:57;6.03;;;5.25;;
65377;SDS011;51982;51.042;13.806;2023-06-24T00:50:23;7.97;;;5.63;;
65377;SDS011;51982;51.042;13.806;2023-06-24T00:52:48;11.10;;;6.10;;
65377;SDS011;51982;51.042;13.806;2023-06-24T00:55:14;6.90;;;5.25;;
65377;SDS011;51982;51.042;13.806;2023-06-24T00:57:44;9.57;;;6.25;;
65377;SDS011;51982;51.042;13.806;2023-06-24T01:00:10;9.02;;;5.40;;
65377;SDS011;51982;51.042;13.806;2023-06-24T01:02:41;7.63;;;5.70;;
65377;SDS011;51982;51.042;13.806;2023-06-24T01:05:08;12.55;;;6.75;;
65377;SDS011;51982;51.042;13.806;2023-06-24T01:07:35;12.20;;;7.22;;
65377;SDS011;51982;51.042;13.806;2023-06-24T01:10:02;11.90;;;6.97;;
65377;SDS011;51982;51.042;13.806;2023-06-24T01:12:30;15.70;;;6.63;;
65377;SDS011;51982;51.042;13.806;2023-06-24T01:14:56;11.82;;;6.30;;
65377;SDS011;51982;51.042;13.806;2023-06-24T01:17:24;12.40;;;6.95;;
65377;SDS011;51982;51.042;13.806;2023-06-24T01:20:02;9.48;;;6.82;;
65377;SDS011;51982;51.042;13.806;2023-06-24T01:22:53;13.23;;;6.95;;
65377;SDS011;51982;51.042;13.806;2023-06-24T01:25:38;13.75;;;7.10;;
65377;SDS011;51982;51.042;13.806;2023-06-24T01:30:54;9.75;;;6.88;;
65377;SDS011;51982;51.042;13.806;2023-06-24T01:33:42;10.60;;;7.30;;
65377;SDS011;51982;51.042;13.806;2023-06-24T01:36:24;13.93;;;7.65;;
65377;SDS011;51982;51.042;13.806;2023-06-24T01:38:52;12.85;;;7.90;;
65377;SDS011;51982;51.042;13.806;2023-06-24T01:41:24;12.50;;;7.43;;
65377;SDS011;51982;51.042;13.806;2023-06-24T01:43:55;14.98;;;7.65;;
65377;SDS011;51982;51.042;13.806;2023-06-24T01:46:22;11.40;;;7.40;;
65377;SDS011;51982;51.042;13.806;2023-06-24T01:48:50;15.07;;;7.70;;
65377;SDS011;51982;51.042;13.806;2023-06-24T01:51:20;10.95;;;7.72;;
65377;SDS011;51982;51.042;13.806;2023-06-24T01:53:54;17.08;;;8.02;;
65377;SDS011;51982;51.042;13.806;2023-06-24T01:56:23;10.50;;;7.15;;
65377;SDS011;51982;51.042;13.806;2023-06-24T01:58:50;11.43;;;7.88;;
65377;SDS011;51982;51.042;13.806;2023-06-24T02:01:17;16.90;;;8.05;;
65377;SDS011;51982;51.042;13.806;2023-06-24T02:03:44;12.77;;;8.15;;
65377;SDS011;51982;51.042;13.806;2023-06-24T02:06:10;13.43;;;8.45;;
65377;SDS011;51982;51.042;13.806;2023-06-24T02:08:37;18.98;;;9.85;;
65377;SDS011;51982;51.042;13.806;2023-06-24T02:11:03;15.43;;;8.13;;
65377;SDS011;51982;51.042;13.806;2023-06-24T02:13:29;14.05;;;8.38;;
65377;SDS011;51982;51.042;13.806;2023-06-24T02:15:57;14.77;;;9.02;;
65377;SDS011;51982;51.042;13.806;2023-06-24T02:18:25;16.17;;;8.88;;
65377;SDS011;51982;51.042;13.806;2023-06-24T02:20:52;14.70;;;9.60;;
65377;SDS011;51982;51.042;13.806;2023-06-24T02:23:19;12.68;;;9.13;;
65377;SDS011;51982;51.042;13.806;2023-06-24T02:25:45;20.20;;;8.77;;
65377;SDS011;51982;51.042;13.806;2023-06-24T02:28:11;16.55;;;10.30;;
65377;SDS011;51982;51.042;13.806;2023-06-24T02:30:37;19.27;;;9.55;;
65377;SDS011;51982;51.042;13.806;2023-06-24T02:33:03;17.40;;;9.35;;
65377;SDS011;51982;51.042;13.806;2023-06-24T02:35:29;16.45;;;9.18;;
65377;SDS011;51982;51.042;13.806;2023-06-24T02:37:54;14.38;;;9.25;;
65377;SDS011;51982;51.042;13.806;2023-06-24T02:40:19;19.10;;;9.93;;
65377;SDS011;51982;51.042;13.806;2023-06-24T02:42:45;19.60;;;9.85;;
65377;SDS011;51982;51.042;13.806;2023-06-24T02:45:10;14.30;;;9.48;;
65377;SDS011;51982;51.042;13.806;2023-06-24T02:47:36;15.45;;;9.95;;
65377;SDS011;51982;51.042;13.806;2023-06-24T02:50:03;16.08;;;9.95;;
65377;SDS011;51982;51.042;13.806;2023-06-24T02:52:30;17.42;;;9.25;;
65377;SDS011;51982;51.042;13.806;2023-06-24T02:54:59;17.15;;;10.25;;
65377;SDS011;51982;51.042;13.806;2023-06-24T02:57:24;18.55;;;10.00;;
65377;SDS011;51982;51.042;13.806;2023-06-24T02:59:51;19.65;;;9.93;;
65377;SDS011;51982;51.042;13.806;2023-06-24T03:02:16;15.60;;;9.60;;
65377;SDS011;51982;51.042;13.806;2023-06-24T03:04:42;19.88;;;10.15;;
65377;SDS011;51982;51.042;13.806;2023-06-24T03:07:09;14.00;;;9.88;;
65377;SDS011;51982;51.042;13.806;2023-06-24T03:09:35;20.85;;;10.88;;
65377;SDS011;51982;51.042;13.806;2023-06-24T03:12:01;17.55;;;9.80;;
65377;SDS011;51982;51.042;13.806;2023-06-24T03:14:26;19.23;;;10.32;;
65377;SDS011;51982;51.042;13.806;2023-06-24T03:16:51;16.57;;;10.80;;
65377;SDS011;51982;51.042;13.806;2023-06-24T03:19:16;19.75;;;10.82;;
65377;SDS011;51982;51.042;13.806;2023-06-24T03:21:42;16.40;;;9.97;;
65377;SDS011;51982;51.042;13.806;2023-06-24T03:24:07;16.85;;;9.45;;
65377;SDS011;51982;51.042;13.806;2023-06-24T03:26:34;17.58;;;10.25;;
65377;SDS011;51982;51.042;13.806;2023-06-24T03:29:00;21.95;;;10.73;;
65377;SDS011;51982;51.042;13.806;2023-06-24T03:31:26;21.38;;;10.20;;
65377;SDS011;51982;51.042;13.806;2023-06-24T03:33:51;17.70;;;8.90;;
65377;SDS011;51982;51.042;13.806;2023-06-24T03:36:16;21.33;;;10.50;;
65377;SDS011;51982;51.042;13.806;2023-06-24T03:38:41;20.92;;;10.25;;
65377;SDS011;51982;51.042;13.806;2023-06-24T03:41:07;17.42;;;10.93;;
65377;SDS011;51982;51.042;13.806;2023-06-24T03:43:32;21.17;;;10.10;;
65377;SDS011;51982;51.042;13.806;2023-06-24T03:45:57;26.38;;;10.52;;
65377;SDS011;51982;51.042;13.806;2023-06-24T03:48:22;18.92;;;10.45;;
65377;SDS011;51982;51.042;13.806;2023-06-24T03:50:48;21.23;;;10.63;;
65377;SDS011;51982;51.042;13.806;2023-06-24T03:53:13;19.58;;;11.05;;
65377;SDS011;51982;51.042;13.806;2023-06-24T03:55:38;16.48;;;10.93;;
65377;SDS011;51982;51.042;13.806;2023-06-24T03:58:03;21.87;;;9.93;;
65377;SDS011;51982;51.042;13.806;2023-06-24T04:00:28;20.13;;;9.83;;
65377;SDS011;51982;51.042;13.806;2023-06-24T04:02:54;20.10;;;9.77;;
65377;SDS011;51982;51.042;13.806;2023-06-24T04:05:20;15.03;;;9.60;;
65377;SDS011;51982;51.042;13.806;2023-06-24T04:07:45;17.80;;;9.68;;
65377;SDS011;51982;51.042;13.806;2023-06-24T04:10:12;17.35;;;10.35;;
65377;SDS011;51982;51.042;13.806;2023-06-24T04:12:37;15.35;;;9.20;;
65377;SDS011;51982;51.042;13.806;2023-06-24T04:15:03;14.32;;;9.63;;
65377;SDS011;51982;51.042;13.806;2023-06-24T04:17:29;18.25;;;9.35;;
65377;SDS011;51982;51.042;13.806;2023-06-24T04:19:55;15.00;;;9.13;;
65377;SDS011;51982;51.042;13.806;2023-06-24T04:22:20;20.85;;;8.57;;
65377;SDS011;51982;51.042;13.806;2023-06-24T04:24:45;18.83;;;9.00;;
65377;SDS011;51982;51.042;13.806;2023-06-24T04:27:11;17.67;;;9.17;;
65377;SDS011;51982;51.042;13.806;2023-06-24T04:29:36;17.42;;;9.02;;
65377;SDS011;51982;51.042;13.806;2023-06-24T04:32:01;15.13;;;8.98;;
65377;SDS011;51982;51.042;13.806;2023-06-24T04:34:27;12.38;;;9.20;;
65377;SDS011;51982;51.042;13.806;2023-06-24T04:36:52;16.20;;;8.90;;
65377;SDS011;51982;51.042;13.806;2023-06-24T04:39:17;18.70;;;9.13;;
65377;SDS011;51982;51.042;13.806;2023-06-24T04:41:42;14.73;;;8.60;;
65377;SDS011;51982;51.042;13.806;2023-06-24T04:44:08;19.60;;;8.40;;
65377;SDS011;51982;51.042;13.806;2023-06-24T04:46:33;10.83;;;7.70;;
65377;SDS011;51982;51.042;13.806;2023-06-24T04:48:59;14.65;;;8.32;;
65377;SDS011;51982;51.042;13.806;2023-06-24T04:51:25;17.08;;;8.13;;
65377;SDS011;51982;51.042;13.806;2023-06-24T04:53:50;14.55;;;7.90;;
65377;SDS011;51982;51.042;13.806;2023-06-24T04:56:15;13.87;;;7.97;;
65377;SDS011;51982;51.042;13.806;2023-06-24T04:58:40;15.50;;;7.30;;
65377;SDS011;51982;51.042;13.806;2023-06-24T05:01:06;11.93;;;7.57;;
65377;SDS011;51982;51.042;13.806;2023-06-24T05:03:31;11.30;;;7.03;;
65377;SDS011;51982;51.042;13.806;2023-06-24T05:05:56;17.75;;;8.07;;
65377;SDS011;51982;51.042;13.806;2023-06-24T05:08:21;13.07;;;7.53;;
65377;SDS011;51982;51.042;13.806;2023-06-24T05:10:46;12.53;;;7.83;;
65377;SDS011;51982;51.042;13.806;2023-06-24T05:13:12;11.20;;;7.80;;
65377;SDS011;51982;51.042;13.806;2023-06-24T05:15:37;15.50;;;8.23;;
65377;SDS011;51982;51.042;13.806;2023-06-24T05:18:02;12.20;;;7.77;;
65377;SDS011;51982;51.042;13.806;2023-06-24T05:20:27;12.97;;;7.40;;
65377;SDS011;51982;51.042;13.806;2023-06-24T05:22:54;15.13;;;7.85;;
65377;SDS011;51982;51.042;13.806;2023-06-24T05:25:19;13.77;;;8.20;;
65377;SDS011;51982;51.042;13.806;2023-06-24T05:27:45;16.00;;;8.10;;
65377;SDS011;51982;51.042;13.806;2023-06-24T05:30:10;15.75;;;8.95;;
65377;SDS011;51982;51.042;13.806;2023-06-24T05:32:36;13.48;;;9.73;;
65377;SDS011;51982;51.042;13.806;2023-06-24T05:35:01;14.57;;;9.60;;
65377;SDS011;51982;51.042;13.806;2023-06-24T05:37:26;16.00;;;10.63;;
65377;SDS011;51982;51.042;13.806;2023-06-24T05:39:51;20.13;;;11.70;;
65377;SDS011;51982;51.042;13.806;2023-06-24T05:42:17;15.70;;;10.90;;
65377;SDS011;51982;51.042;13.806;2023-06-24T05:44:43;21.73;;;11.77;;
65377;SDS011;51982;51.042;13.806;2023-06-24T05:47:08;14.90;;;11.60;;
65377;SDS011;51982;51.042;13.806;2023-06-24T05:49:33;24.10;;;11.77;;
65377;SDS011;51982;51.042;13.806;2023-06-24T05:51:58;17.47;;;11.70;;
65377;SDS011;51982;51.042;13.806;2023-06-24T05:54:24;20.67;;;12.55;;
65377;SDS011;51982;51.042;13.806;2023-06-24T05:56:49;15.57;;;11.30;;
65377;SDS011;51982;51.042;13.806;2023-06-24T05:59:14;19.02;;;11.82;;
65377;SDS011;51982;51.042;13.806;2023-06-24T06:01:39;21.33;;;11.52;;
65377;SDS011;51982;51.042;13.806;2023-06-24T06:04:05;22.70;;;11.27;;
65377;SDS011;51982;51.042;13.806;2023-06-24T06:06:30;21.90;;;11.80;;
65377;SDS011;51982;51.042;13.806;2023-06-24T06:08:56;25.52;;;12.05;;
65377;SDS011;51982;51.042;13.806;2023-06-24T06:11:22;18.35;;;12.02;;
65377;SDS011;51982;51.042;13.806;2023-06-24T06:13:47;18.77;;;11.35;;
65377;SDS011;51982;51.042;13.806;2023-06-24T06:16:12;23.50;;;12.02;;
65377;SDS011;51982;51.042;13.806;2023-06-24T06:18:37;22.47;;;12.20;;
65377;SDS011;51982;51.042;13.806;2023-06-24T06:21:02;28.37;;;13.10;;
65377;SDS011;51982;51.042;13.806;2023-06-24T06:23:28;26.95;;;13.00;;
65377;SDS011;51982;51.042;13.806;2023-06-24T06:25:53;28.27;;;12.43;;
65377;SDS011;51982;51.042;13.806;2023-06-24T06:28:18;22.93;;;12.33;;
65377;SDS011;51982;51.042;13.806;2023-06-24T06:30:43;21.73;;;13.10;;
65377;SDS011;51982;51.042;13.806;2023-06-24T06:33:09;24.60;;;13.20;;
65377;SDS011;51982;51.042;13.806;2023-06-24T06:35:34;23.95;;;12.73;;
65377;SDS011;51982;51.042;13.806;2023-06-24T06:37:59;21.02;;;13.05;;
65377;SDS011;51982;51.042;13.806;2023-06-24T06:40:25;22.02;;;12.73;;
65377;SDS011;51982;51.042;13.806;2023-06-24T06:42:52;25.13;;;13.23;;
65377;SDS011;51982;51.042;13.806;2023-06-24T06:45:17;23.80;;;13.27;;
65377;SDS011;51982;51.042;13.806;2023-06-24T06:47:42;24.15;;;12.30;;
65377;SDS011;51982;51.042;13.806;2023-06-24T06:50:07;20.83;;;11.83;;
65377;SDS011;51982;51.042;13.806;2023-06-24T06:52:33;22.63;;;11.82;;
65377;SDS011;51982;51.042;13.806;2023-06-24T06:54:58;20.20;;;11.65;;
65377;SDS011;51982;51.042;13.806;2023-06-24T06:57:24;20.48;;;10.90;;
65377;SDS011;51982;51.042;13.806;2023-06-24T06:59:49;16.63;;;10.57;;
65377;SDS011;51982;51.042;13.806;2023-06-24T07:02:16;21.10;;;11.77;;
65377;SDS011;51982;51.042;13.806;2023-06-24T07:04:41;18.50;;;11.80;;
65377;SDS011;51982;51.042;13.806;2023-06-24T07:07:06;19.85;;;11.55;;
65377;SDS011;51982;51.042;13.806;2023-06-24T07:09:32;23.38;;;11.75;;
65377;SDS011;51982;51.042;13.806;2023-06-24T07:11:57;18.08;;;11.68;;
65377;SDS011;51982;51.042;13.806;2023-06-24T07:14:22;21.30;;;11.57;;
65377;SDS011;51982;51.042;13.806;2023-06-24T07:16:47;19.98;;;11.88;;
65377;SDS011;51982;51.042;13.806;2023-06-24T07:19:13;25.30;;;11.87;;
65377;SDS011;51982;51.042;13.806;2023-06-24T07:21:38;16.30;;;10.83;;
65377;SDS011;51982;51.042;13.806;2023-06-24T07:24:04;20.58;;;11.18;;
65377;SDS011;51982;51.042;13.806;2023-06-24T07:26:29;20.20;;;11.18;;
65377;SDS011;51982;51.042;13.806;2023-06-24T07:28:58;22.52;;;11.10;;
65377;SDS011;51982;51.042;13.806;2023-06-24T07:31:24;20.50;;;10.65;;
65377;SDS011;51982;51.042;13.806;2023-06-24T07:33:49;20.25;;;10.45;;
65377;SDS011;51982;51.042;13.806;2023-06-24T07:36:15;20.83;;;10.70;;
65377;SDS011;51982;51.042;13.806;2023-06-24T07:38:40;19.38;;;11.00;;
65377;SDS011;51982;51.042;13.806;2023-06-24T07:41:05;15.87;;;10.10;;
65377;SDS011;51982;51.042;13.806;2023-06-24T07:43:30;18.17;;;10.13;;
65377;SDS011;51982;51.042;13.806;2023-06-24T07:45:55;15.77;;;9.60;;
65377;SDS011;51982;51.042;13.806;2023-06-24T07:48:21;15.02;;;9.85;;
65377;SDS011;51982;51.042;13.806;2023-06-24T07:50:46;18.13;;;9.93;;
65377;SDS011;51982;51.042;13.806;2023-06-24T07:53:11;13.15;;;9.23;;
65377;SDS011;51982;51.042;13.806;2023-06-24T07:55:36;17.87;;;9.60;;
65377;SDS011;51982;51.042;13.806;2023-06-24T07:58:02;16.55;;;9.95;;
65377;SDS011;51982;51.042;13.806;2023-06-24T08:00:27;16.33;;;9.20;;
65377;SDS011;51982;51.042;13.806;2023-06-24T08:02:53;16.27;;;9.32;;
65377;SDS011;51982;51.042;13.806;2023-06-24T08:05:20;12.70;;;9.05;;
65377;SDS011;51982;51.042;13.806;2023-06-24T08:07:45;11.60;;;9.15;;
65377;SDS011;51982;51.042;13.806;2023-06-24T08:10:11;13.45;;;8.10;;
65377;SDS011;51982;51.042;13.806;2023-06-24T08:12:36;17.67;;;8.88;;
65377;SDS011;51982;51.042;13.806;2023-06-24T08:15:01;13.07;;;8.55;;
65377;SDS011;51982;51.042;13.806;2023-06-24T08:17:27;16.10;;;8.18;;
65377;SDS011;51982;51.042;13.806;2023-06-24T08:19:52;12.63;;;7.35;;
65377;SDS011;51982;51.042;13.806;2023-06-24T08:22:18;13.25;;;7.15;;
65377;SDS011;51982;51.042;13.806;2023-06-24T08:24:43;13.20;;;6.60;;
65377;SDS011;51982;51.042;13.806;2023-06-24T08:27:08;13.82;;;6.95;;
65377;SDS011;51982;51.042;13.806;2023-06-24T08:29:34;11.97;;;6.60;;
65377;SDS011;51982;51.042;13.806;2023-06-24T08:31:59;13.18;;;7.03;;
65377;SDS011;51982;51.042;13.806;2023-06-24T08:34:24;16.25;;;6.97;;
65377;SDS011;51982;51.042;13.806;2023-06-24T08:36:50;11.00;;;6.70;;
65377;SDS011;51982;51.042;13.806;2023-06-24T08:39:15;10.10;;;6.63;;
65377;SDS011;51982;51.042;13.806;2023-06-24T08:41:40;11.77;;;6.43;;
65377;SDS011;51982;51.042;13.806;2023-06-24T08:44:05;11.67;;;6.37;;
65377;SDS011;51982;51.042;13.806;2023-06-24T08:46:30;11.68;;;5.97;;
65377;SDS011;51982;51.042;13.806;2023-06-24T08:49:24;9.75;;;6.10;;
65377;SDS011;51982;51.042;13.806;2023-06-24T08:51:54;8.90;;;5.35;;
65377;SDS011;51982;51.042;13.806;2023-06-24T08:54:36;8.02;;;4.63;;
65377;SDS011;51982;51.042;13.806;2023-06-24T08:57:02;6.88;;;4.68;;
65377;SDS011;51982;51.042;13.806;2023-06-24T08:59:30;9.60;;;5.10;;
65377;SDS011;51982;51.042;13.806;2023-06-24T09:01:56;9.40;;;4.60;;
65377;SDS011;51982;51.042;13.806;2023-06-24T09:04:21;8.13;;;4.80;;
65377;SDS011;51982;51.042;13.806;2023-06-24T09:06:47;11.67;;;5.13;;
65377;SDS011;51982;51.042;13.806;2023-06-24T09:09:18;12.27;;;4.43;;
65377;SDS011;51982;51.042;13.806;2023-06-24T09:11:52;6.53;;;4.15;;
65377;SDS011;51982;51.042;13.806;2023-06-24T09:14:24;7.20;;;4.38;;
65377;SDS011;51982;51.042;13.806;2023-06-24T09:16:54;8.77;;;4.32;;
65377;SDS011;51982;51.042;13.806;2023-06-24T09:19:25;9.05;;;4.43;;
65377;SDS011;51982;51.042;13.806;2023-06-24T09:22:04;5.87;;;4.23;;
65377;SDS011;51982;51.042;13.806;2023-06-24T09:24:31;6.50;;;4.00;;
65377;SDS011;51982;51.042;13.806;2023-06-24T09:26:58;12.45;;;4.05;;
65377;SDS011;51982;51.042;13.806;2023-06-24T09:29:26;6.22;;;3.78;;
65377;SDS011;51982;51.042;13.806;2023-06-24T09:31:53;6.22;;;3.83;;
65377;SDS011;51982;51.042;13.806;2023-06-24T09:34:20;7.60;;;3.80;;
65377;SDS011;51982;51.042;13.806;2023-06-24T09:36:50;5.57;;;3.60;;
65377;SDS011;51982;51.042;13.806;2023-06-24T09:39:17;8.57;;;3.75;;
65377;SDS011;51982;51.042;13.806;2023-06-24T09:41:43;6.45;;;3.75;;
65377;SDS011;51982;51.042;13.806;2023-06-24T09:44:11;7.40;;;3.80;;
65377;SDS011;51982;51.042;13.806;2023-06-24T09:46:36;8.98;;;4.20;;
65377;SDS011;51982;51.042;13.806;2023-06-24T09:49:05;8.73;;;3.72;;
65377;SDS011;51982;51.042;13.806;2023-06-24T09:51:36;4.57;;;3.33;;
65377;SDS011;51982;51.042;13.806;2023-06-24T09:54:06;6.63;;;3.83;;
65377;SDS011;51982;51.042;13.806;2023-06-24T09:56:34;6.35;;;3.75;;
65377;SDS011;51982;51.042;13.806;2023-06-24T09:59:03;4.97;;;3.30;;
65377;SDS011;51982;51.042;13.806;2023-06-24T10:01:29;5.40;;;3.63;;
65377;SDS011;51982;51.042;13.806;2023-06-24T10:03:57;5.63;;;3.40;;
65377;SDS011;51982;51.042;13.806;2023-06-24T10:06:23;6.13;;;3.78;;
65377;SDS011;51982;51.042;13.806;2023-06-24T10:08:50;7.82;;;3.80;;
65377;SDS011;51982;51.042;13.806;2023-06-24T10:11:15;6.68;;;3.40;;
65377;SDS011;51982;51.042;13.806;2023-06-24T10:13:40;5.93;;;3.30;;
65377;SDS011;51982;51.042;13.806;2023-06-24T10:16:06;7.35;;;3.88;;
65377;SDS011;51982;51.042;13.806;2023-06-24T10:21:01;6.65;;;3.58;;
65377;SDS011;51982;51.042;13.806;2023-06-24T10:23:31;9.35;;;3.58;;
65377;SDS011;51982;51.042;13.806;2023-06-24T10:25:58;4.88;;;3.72;;
65377;SDS011;51982;51.042;13.806;2023-06-24T10:28:23;6.45;;;3.55;;
65377;SDS011;51982;51.042;13.806;2023-06-24T10:30:55;7.23;;;3.70;;
65377;SDS011;51982;51.042;13.806;2023-06-24T10:33:24;4.97;;;3.60;;
65377;SDS011;51982;51.042;13.806;2023-06-24T10:35:50;6.47;;;3.50;;
65377;SDS011;51982;51.042;13.806;2023-06-24T10:38:16;4.65;;;3.50;;
65377;SDS011;51982;51.042;13.806;2023-06-24T10:40:42;9.27;;;3.90;;
65377;SDS011;51982;51.042;13.806;2023-06-24T10:45:52;11.18;;;3.80;;
65377;SDS011;51982;51.042;13.806;2023-06-24T10:48:18;6.85;;;3.60;;
65377;SDS011;51982;51.042;13.806;2023-06-24T10:50:47;4.75;;;3.72;;
65377;SDS011;51982;51.042;13.806;2023-06-24T10:53:13;4.82;;;3.17;;
65377;SDS011;51982;51.042;13.806;2023-06-24T10:55:38;6.63;;;3.55;;
65377;SDS011;51982;51.042;13.806;2023-06-24T10:58:11;4.47;;;3.17;;
65377;SDS011;51982;51.042;13.806;2023-06-24T11:00:38;4.30;;;2.97;;
65377;SDS011;51982;51.042;13.806;2023-06-24T11:03:10;4.15;;;3.28;;
65377;SDS011;51982;51.042;13.806;2023-06-24T11:05:39;4.45;;;3.25;;
65377;SDS011;51982;51.042;13.806;2023-06-24T11:08:06;5.70;;;3.30;;
65377;SDS011;51982;51.042;13.806;2023-06-24T11:10:31;4.00;;;3.22;;
65377;SDS011;51982;51.042;13.806;2023-06-24T11:12:57;4.63;;;3.60;;
65377;SDS011;51982;51.042;13.806;2023-06-24T11:15:23;6.05;;;3.35;;
65377;SDS011;51982;51.042;13.806;2023-06-24T11:17:50;4.13;;;3.42;;
65377;SDS011;51982;51.042;13.806;2023-06-24T11:20:16;4.47;;;3.40;;
65377;SDS011;51982;51.042;13.806;2023-06-24T11:22:41;6.97;;;3.50;;
65377;SDS011;51982;51.042;13.806;2023-06-24T11:25:17;6.15;;;3.65;;
65377;SDS011;51982;51.042;13.806;2023-06-24T11:27:44;5.43;;;3.28;;
65377;SDS011;51982;51.042;13.806;2023-06-24T11:30:10;4.25;;;3.13;;
65377;SDS011;51982;51.042;13.806;2023-06-24T11:32:36;5.07;;;3.63;;
65377;SDS011;51982;51.042;13.806;2023-06-24T11:35:05;5.43;;;3.08;;
65377;SDS011;51982;51.042;13.806;2023-06-24T11:37:33;6.22;;;3.13;;
65377;SDS011;51982;51.042;13.806;2023-06-24T11:40:05;4.07;;;3.47;;
65377;SDS011;51982;51.042;13.806;2023-06-24T11:45:05;5.13;;;3.55;;
65377;SDS011;51982;51.042;13.806;2023-06-24T11:47:32;5.93;;;3.60;;
65377;SDS011;51982;51.042;13.806;2023-06-24T11:50:02;5.72;;;3.38;;
65377;SDS011;51982;51.042;13.806;2023-06-24T11:52:47;5.57;;;3.38;;
65377;SDS011;51982;51.042;13.806;2023-06-24T11:57:47;6.38;;;3.90;;
65377;SDS011;51982;51.042;13.806;2023-06-24T12:00:15;4.63;;;3.40;;
65377;SDS011;51982;51.042;13.806;2023-06-24T12:02:41;7.13;;;3.90;;
65377;SDS011;51982;51.042;13.806;2023-06-24T12:05:06;5.35;;;3.80;;
65377;SDS011;51982;51.042;13.806;2023-06-24T12:07:32;5.57;;;3.85;;
65377;SDS011;51982;51.042;13.806;2023-06-24T12:09:57;5.70;;;3.90;;
65377;SDS011;51982;51.042;13.806;2023-06-24T12:12:22;8.37;;;3.57;;
65377;SDS011;51982;51.042;13.806;2023-06-24T12:14:47;4.87;;;3.63;;
65377;SDS011;51982;51.042;13.806;2023-06-24T12:17:13;3.97;;;3.40;;
65377;SDS011;51982;51.042;13.806;2023-06-24T12:19:38;7.03;;;3.80;;
65377;SDS011;51982;51.042;13.806;2023-06-24T12:22:03;13.55;;;3.90;;
65377;SDS011;51982;51.042;13.806;2023-06-24T12:24:28;5.13;;;3.60;;
65377;SDS011;51982;51.042;13.806;2023-06-24T12:26:54;5.20;;;3.40;;
65377;SDS011;51982;51.042;13.806;2023-06-24T12:29:19;6.85;;;3.63;;
65377;SDS011;51982;51.042;13.806;2023-06-24T12:31:45;7.23;;;3.67;;
65377;SDS011;51982;51.042;13.806;2023-06-24T12:34:10;7.67;;;3.73;;
65377;SDS011;51982;51.042;13.806;2023-06-24T12:36:35;4.20;;;3.70;;
65377;SDS011;51982;51.042;13.806;2023-06-24T12:39:00;4.67;;;3.10;;
65377;SDS011;51982;51.042;13.806;2023-06-24T12:41:25;6.80;;;3.50;;
65377;SDS011;51982;51.042;13.806;2023-06-24T12:43:53;5.18;;;3.70;;
65377;SDS011;51982;51.042;13.806;2023-06-24T12:46:18;10.00;;;4.00;;
65377;SDS011;51982;51.042;13.806;2023-06-24T12:48:43;4.47;;;3.60;;
65377;SDS011;51982;51.042;13.806;2023-06-24T12:51:08;6.25;;;3.53;;
65377;SDS011;51982;51.042;13.806;2023-06-24T12:53:34;7.00;;;3.70;;
65377;SDS011;51982;51.042;13.806;2023-06-24T12:55:59;7.47;;;3.57;;
65377;SDS011;51982;51.042;13.806;2023-06-24T12:58:24;4.40;;;3.47;;
65377;SDS011;51982;51.042;13.806;2023-06-24T13:00:51;6.75;;;3.15;;
65377;SDS011;51982;51.042;13.806;2023-06-24T13:03:16;5.07;;;3.47;;
65377;SDS011;51982;51.042;13.806;2023-06-24T13:05:41;5.68;;;3.50;;
65377;SDS011;51982;51.042;13.806;2023-06-24T13:08:06;10.63;;;3.57;;
65377;SDS011;51982;51.042;13.806;2023-06-24T13:10:32;5.40;;;3.27;;
65377;SDS011;51982;51.042;13.806;2023-06-24T13:12:57;6.85;;;3.40;;
65377;SDS011;51982;51.042;13.806;2023-06-24T13:15:22;4.70;;;3.23;;
65377;SDS011;51982;51.042;13.806;2023-06-24T13:17:48;7.03;;;3.88;;
65377;SDS011;51982;51.042;13.806;2023-06-24T13:20:14;4.10;;;3.30;;
65377;SDS011;51982;51.042;13.806;2023-06-24T13:22:39;5.53;;;3.40;;
65377;SDS011;51982;51.042;13.806;2023-06-24T13:25:04;4.87;;;3.20;;
65377;SDS011;51982;51.042;13.806;2023-06-24T13:27:30;4.90;;;3.28;;
65377;SDS011;51982;51.042;13.806;2023-06-24T13:29:55;5.23;;;3.47;;
65377;SDS011;51982;51.042;13.806;2023-06-24T13:32:21;6.45;;;3.67;;
65377;SDS011;51982;51.042;13.806;2023-06-24T13:34:46;5.53;;;3.13;;
65377;SDS011;51982;51.042;13.806;2023-06-24T13:37:11;6.90;;;3.33;;
65377;SDS011;51982;51.042;13.806;2023-06-24T13:39:36;5.33;;;3.27;;
65377;SDS011;51982;51.042;13.806;2023-06-24T13:42:02;5.68;;;3.92;;
65377;SDS011;51982;51.042;13.806;2023-06-24T13:44:27;6.93;;;3.58;;
65377;SDS011;51982;51.042;13.806;2023-06-24T13:46:52;5.13;;;3.30;;
65377;SDS011;51982;51.042;13.806;2023-06-24T13:49:20;4.40;;;3.50;;
65377;SDS011;51982;51.042;13.806;2023-06-24T13:51:46;6.43;;;3.33;;
65377;SDS011;51982;51.042;13.806;2023-06-24T13:54:11;4.05;;;3.17;;
65377;SDS011;51982;51.042;13.806;2023-06-24T13:56:36;7.13;;;3.30;;
65377;SDS011;51982;51.042;13.806;2023-06-24T13:59:02;4.57;;;3.03;;
65377;SDS011;51982;51.042;13.806;2023-06-24T14:01:27;5.30;;;3.22;;
65377;SDS011;51982;51.042;13.806;2023-06-24T14:03:56;4.32;;;3.20;;
65377;SDS011;51982;51.042;13.806;2023-06-24T14:06:22;4.57;;;3.30;;
65377;SDS011;51982;51.042;13.806;2023-06-24T14:08:48;6.28;;;3.17;;
65377;SDS011;51982;51.042;13.806;2023-06-24T14:11:14;4.82;;;3.05;;
65377;SDS011;51982;51.042;13.806;2023-06-24T14:13:40;5.95;;;2.90;;
65377;SDS011;51982;51.042;13.806;2023-06-24T14:16:06;4.85;;;2.90;;
65377;SDS011;51982;51.042;13.806;2023-06-24T14:18:32;4.00;;;3.28;;
65377;SDS011;51982;51.042;13.806;2023-06-24T14:20:58;4.05;;;3.17;;
65377;SDS011;51982;51.042;13.806;2023-06-24T14:23:24;9.15;;;2.97;;
65377;SDS011;51982;51.042;13.806;2023-06-24T14:25:50;6.20;;;3.40;;
65377;SDS011;51982;51.042;13.806;2023-06-24T14:28:16;4.05;;;2.80;;
65377;SDS011;51982;51.042;13.806;2023-06-24T14:30:41;9.82;;;2.90;;
65377;SDS011;51982;51.042;13.806;2023-06-24T14:33:07;3.60;;;2.90;;